Time;durP1;ratioP1;P1;durP2;ratioP2;P2;SDS_P1;SDS_P2;PMS_P1;PMS_P2;Temp;Humidity;BMP_temperature;BMP_pressure;BME280_temperature;BME280_humidity;BME280_pressure;Samples;Min_cycle;Max_cycle;Signal;HPM_P1;HPM_P2
2021/11/06 00:00:00;;;;;;;55.55;27.52;;;3.50;99.90;;;;;;5051011;28;20025;-65
2021/11/06 00:02:26;;;;;;;58.30;27.60;;;3.50;99.90;;;;;;5050859;28;20474;-65
2021/11/06 00:04:52;;;;;;;49.88;26.25;;;3.40;99.90;;;;;;5050747;28;20044;-65
2021/11/06 00:07:17;;;;;;;47.35;25.25;;;3.30;99.90;;;;;;5051765;28;20492;-65
2021/11/06 00:09:43;;;;;;;53.67;26.90;;;3.20;99.90;;;;;;5050789;28;20501;-65
2021/11/06 00:12:10;;;;;;;50.17;25.80;;;3.20;99.90;;;;;;5051714;28;20029;-65
2021/11/06 00:14:35;;;;;;;48.53;25.15;;;3.10;99.90;;;;;;5051712;28;20048;-65
2021/11/06 00:17:01;;;;;;;57.35;27.52;;;3.00;99.90;;;;;;5050879;28;20025;-65
2021/11/06 00:19:27;;;;;;;52.47;26.70;;;3.00;99.90;;;;;;5051739;28;20033;-65
2021/11/06 00:21:53;;;;;;;49.47;26.45;;;2.90;99.90;;;;;;5050883;28;20111;-66
2021/11/06 00:24:19;;;;;;;53.80;28.33;;;2.90;99.90;;;;;;5051465;28;20110;-65
2021/11/06 00:26:49;;;;;;;48.60;25.27;;;2.80;99.90;;;;;;5049785;28;20033;-65
2021/11/06 00:29:19;;;;;;;55.28;27.50;;;2.70;99.90;;;;;;5051635;28;20115;-66
2021/11/06 00:31:45;;;;;;;60.25;27.33;;;2.70;99.90;;;;;;5050887;28;20137;-66
2021/11/06 00:34:11;;;;;;;59.50;28.27;;;2.60;99.90;;;;;;5051330;28;20066;-66
2021/11/06 00:36:37;;;;;;;58.95;28.88;;;2.60;99.90;;;;;;5051472;28;20454;-65
2021/11/06 00:39:04;;;;;;;55.63;28.10;;;2.60;99.90;;;;;;5050417;28;20025;-66
2021/11/06 00:41:30;;;;;;;65.38;29.63;;;2.50;99.90;;;;;;5051233;28;20501;-65
2021/11/06 00:43:56;;;;;;;56.80;28.25;;;2.50;99.90;;;;;;5049768;28;20056;-65
2021/11/06 00:46:21;;;;;;;61.40;29.58;;;2.50;99.90;;;;;;5051775;28;20451;-65
2021/11/06 00:48:49;;;;;;;66.13;30.83;;;2.50;99.90;;;;;;5050520;28;20036;-65
2021/11/06 00:51:15;;;;;;;65.85;29.50;;;2.50;99.90;;;;;;5051381;28;20021;-65
2021/11/06 00:53:41;;;;;;;67.10;29.52;;;2.50;99.90;;;;;;5051065;28;20040;-65
2021/11/06 00:56:06;;;;;;;74.65;31.52;;;2.40;99.90;;;;;;5050501;28;20033;-66
2021/11/06 00:58:32;;;;;;;73.72;32.58;;;2.50;99.90;;;;;;5051436;28;20029;-65
2021/11/06 01:00:58;;;;;;;68.03;31.75;;;2.50;99.90;;;;;;5050923;28;20469;-66
2021/11/06 01:03:23;;;;;;;66.47;30.85;;;2.50;99.90;;;;;;5051464;28;20056;-65
2021/11/06 01:05:49;;;;;;;60.83;29.08;;;2.40;99.90;;;;;;5050179;28;20040;-65
2021/11/06 01:08:15;;;;;;;61.10;29.63;;;2.40;99.90;;;;;;5051277;28;20111;-65
2021/11/06 01:10:41;;;;;;;62.75;28.85;;;2.30;99.90;;;;;;5051088;28;20029;-65
2021/11/06 01:13:06;;;;;;;59.70;27.35;;;2.30;99.90;;;;;;5051108;28;20257;-65
2021/11/06 01:15:32;;;;;;;71.90;32.22;;;2.20;99.90;;;;;;5054553;28;20112;-65
2021/11/06 01:17:58;;;;;;;74.60;31.25;;;2.10;99.90;;;;;;5053913;28;20025;-66
2021/11/06 01:20:24;;;;;;;60.28;28.55;;;2.10;99.90;;;;;;5054293;28;20029;-65
2021/11/06 01:22:50;;;;;;;62.63;28.13;;;2.10;99.90;;;;;;5053782;28;20043;-65
2021/11/06 01:25:16;;;;;;;80.78;30.70;;;2.00;99.90;;;;;;5054226;28;20111;-65
2021/11/06 01:27:42;;;;;;;70.43;30.63;;;2.00;99.90;;;;;;5054640;28;20480;-66
2021/11/06 01:30:09;;;;;;;74.40;31.58;;;1.90;99.90;;;;;;5053978;28;20170;-65
2021/11/06 01:32:35;;;;;;;75.75;32.38;;;1.90;99.90;;;;;;5054437;28;20033;-65
2021/11/06 01:35:01;;;;;;;77.43;33.30;;;1.90;99.90;;;;;;5053247;28;20033;-66
2021/11/06 01:37:28;;;;;;;75.25;33.08;;;1.90;99.90;;;;;;5054357;28;20030;-65
2021/11/06 01:39:54;;;;;;;69.18;32.28;;;2.00;99.90;;;;;;5053875;28;20033;-65
2021/11/06 01:42:20;;;;;;;84.50;34.80;;;2.00;99.90;;;;;;5054202;28;20028;-65
2021/11/06 01:44:46;;;;;;;87.55;35.40;;;1.90;99.90;;;;;;5053567;28;20135;-65
2021/11/06 01:47:12;;;;;;;93.88;34.97;;;2.00;99.90;;;;;;5053839;28;20163;-65
2021/11/06 01:49:38;;;;;;;82.25;33.13;;;2.00;99.90;;;;;;5054327;28;20079;-65
2021/11/06 01:52:05;;;;;;;82.50;34.50;;;2.00;99.90;;;;;;5052902;28;20029;-65
2021/11/06 01:54:30;;;;;;;84.63;35.25;;;1.90;99.90;;;;;;5054455;28;20109;-65
2021/11/06 01:56:56;;;;;;;75.97;32.58;;;2.00;99.90;;;;;;5052756;28;20053;-65
2021/11/06 01:59:23;;;;;;;73.22;32.13;;;1.90;99.90;;;;;;5053529;28;20033;-65
2021/11/06 02:01:49;;;;;;;82.88;35.88;;;1.90;99.90;;;;;;5054087;28;20025;-65
2021/11/06 02:04:16;;;;;;;81.22;33.55;;;1.80;99.90;;;;;;5054025;28;20036;-65
2021/11/06 02:06:43;;;;;;;87.70;35.38;;;1.80;99.90;;;;;;5053434;28;20031;-65
2021/11/06 02:09:08;;;;;;;81.55;34.80;;;1.80;99.90;;;;;;5053076;28;20083;-65
2021/11/06 02:11:36;;;;;;;82.22;32.30;;;1.70;99.90;;;;;;5053812;28;20025;-65
2021/11/06 02:14:02;;;;;;;78.78;32.00;;;1.70;99.90;;;;;;5053234;28;20080;-65
2021/11/06 02:16:28;;;;;;;82.72;31.30;;;1.60;99.90;;;;;;5053729;28;20111;-65
2021/11/06 02:18:54;;;;;;;77.85;31.85;;;1.60;99.90;;;;;;5052767;28;20432;-65
2021/11/06 02:21:20;;;;;;;68.28;29.38;;;1.50;99.90;;;;;;5053066;28;20109;-66
2021/11/06 02:23:48;;;;;;;67.78;30.05;;;1.50;99.90;;;;;;5053197;28;20037;-65
2021/11/06 02:26:15;;;;;;;87.90;34.58;;;1.40;99.90;;;;;;5052842;28;20021;-65
2021/11/06 02:28:45;;;;;;;94.20;36.70;;;1.40;99.90;;;;;;5053670;28;20025;-65
2021/11/06 02:31:11;;;;;;;;;;;1.50;99.90;;;;;;5053152;28;20091;-65
2021/11/06 02:33:36;;;;;;;87.53;34.92;;;1.50;99.90;;;;;;5053261;28;19908;-65
2021/11/06 02:36:03;;;;;;;102.93;38.03;;;1.50;99.90;;;;;;5052257;28;20029;-65
2021/11/06 02:38:28;;;;;;;85.93;34.75;;;1.60;99.90;;;;;;5052566;28;20440;-65
2021/11/06 02:40:54;;;;;;;107.53;38.53;;;1.70;99.90;;;;;;5052219;28;20036;-66
2021/11/06 02:43:20;;;;;;;120.85;40.10;;;1.70;99.90;;;;;;5053170;28;20525;-65
2021/11/06 02:45:46;;;;;;;104.50;38.38;;;1.80;99.90;;;;;;5052319;28;20064;-66
2021/11/06 02:48:11;;;;;;;112.80;39.90;;;1.80;99.90;;;;;;5052275;28;20017;-65
2021/11/06 02:50:37;;;;;;;116.28;40.80;;;1.80;99.90;;;;;;5052594;28;20462;-66
2021/11/06 02:53:03;;;;;;;110.45;40.95;;;1.80;99.90;;;;;;5051736;28;20135;-65
2021/11/06 02:55:30;;;;;;;110.28;39.05;;;1.80;99.90;;;;;;5052870;28;20024;-65
2021/11/06 02:57:56;;;;;;;98.15;36.05;;;1.80;99.90;;;;;;5051949;28;20049;-65
2021/11/06 03:00:22;;;;;;;99.35;35.42;;;1.80;99.90;;;;;;5052832;28;20036;-66
2021/11/06 03:02:48;;;;;;;96.55;38.13;;;1.80;99.90;;;;;;5051107;28;20128;-66
2021/11/06 03:05:14;;;;;;;101.20;36.92;;;1.70;99.90;;;;;;5052884;28;20052;-65
2021/11/06 03:07:40;;;;;;;111.28;38.45;;;1.60;99.90;;;;;;5052213;28;20056;-65
2021/11/06 03:10:09;;;;;;;96.78;35.58;;;1.60;99.90;;;;;;5051945;28;20033;-66
2021/11/06 03:12:38;;;;;;;96.38;35.15;;;1.60;99.90;;;;;;5052937;28;20047;-65
2021/11/06 03:15:05;;;;;;;96.93;35.22;;;1.50;99.90;;;;;;5051791;28;20028;-65
2021/11/06 03:17:32;;;;;;;100.05;37.53;;;1.50;99.90;;;;;;5052435;28;20025;-66
2021/11/06 03:19:57;;;;;;;104.50;38.08;;;1.50;99.90;;;;;;5051854;28;20021;-66
2021/11/06 03:22:23;;;;;;;104.22;39.55;;;1.50;99.90;;;;;;5052057;28;20028;-65
2021/11/06 03:24:49;;;;;;;92.80;36.85;;;1.60;99.90;;;;;;5052042;28;20025;-65
2021/11/06 03:27:15;;;;;;;102.10;37.42;;;1.70;99.90;;;;;;5051744;28;20104;-65
2021/11/06 03:29:41;;;;;;;107.78;34.88;;;1.70;99.90;;;;;;5052481;28;20498;-65
2021/11/06 03:32:08;;;;;;;100.85;35.72;;;1.70;99.90;;;;;;5051433;28;20086;-65
2021/11/06 03:34:34;;;;;;;95.22;33.88;;;1.70;99.90;;;;;;5052330;28;20535;-66
2021/11/06 03:37:00;;;;;;;83.22;31.73;;;1.70;99.90;;;;;;5050378;28;20033;-65
2021/11/06 03:39:26;;;;;;;87.25;31.30;;;1.70;99.90;;;;;;5052113;28;20355;-65
2021/11/06 03:41:52;;;;;;;84.20;32.42;;;1.70;99.90;;;;;;5051189;28;20032;-66
2021/11/06 03:44:18;;;;;;;72.05;28.80;;;1.70;99.90;;;;;;5051831;28;20119;-65
2021/11/06 03:46:43;;;;;;;77.57;31.02;;;1.70;99.90;;;;;;5051891;28;20112;-65
2021/11/06 03:49:09;;;;;;;88.88;32.95;;;1.80;99.90;;;;;;5051273;28;20021;-65
2021/11/06 03:51:35;;;;;;;104.22;36.08;;;1.80;99.90;;;;;;5051551;28;20029;-65
2021/11/06 03:54:01;;;;;;;95.95;33.90;;;1.80;99.90;;;;;;5051050;28;20140;-65
2021/11/06 03:56:27;;;;;;;85.78;32.42;;;1.80;99.90;;;;;;5051858;28;20506;-65
2021/11/06 03:58:54;;;;;;;106.07;33.22;;;1.80;99.90;;;;;;5051082;28;20036;-65
2021/11/06 04:01:20;;;;;;;85.97;32.85;;;1.80;99.90;;;;;;5051908;28;20040;-65
2021/11/06 04:03:46;;;;;;;92.95;34.00;;;1.90;99.90;;;;;;5051563;28;20025;-65
2021/11/06 04:06:11;;;;;;;82.53;31.30;;;1.90;99.90;;;;;;5050968;28;20025;-65
2021/11/06 04:08:37;;;;;;;84.13;30.60;;;2.00;99.90;;;;;;5051294;28;20364;-65
2021/11/06 04:11:03;;;;;;;88.50;33.35;;;2.00;99.90;;;;;;5050719;28;20025;-65
2021/11/06 04:13:29;;;;;;;101.95;35.80;;;2.00;99.90;;;;;;5051640;28;20043;-65
2021/11/06 04:15:55;;;;;;;130.93;37.50;;;2.00;99.90;;;;;;5050218;28;20108;-65
2021/11/06 04:18:20;;;;;;;124.50;35.63;;;2.00;99.90;;;;;;5050982;28;20033;-65
2021/11/06 04:20:47;;;;;;;82.43;32.85;;;2.00;99.90;;;;;;5051102;28;20076;-65
2021/11/06 04:23:13;;;;;;;83.22;33.22;;;2.00;99.90;;;;;;5050272;28;20033;-65
2021/11/06 04:25:39;;;;;;;103.68;33.10;;;2.00;99.90;;;;;;5051299;28;20166;-65
2021/11/06 04:28:05;;;;;;;96.63;33.38;;;2.00;99.90;;;;;;5050225;28;20036;-65
2021/11/06 04:30:31;;;;;;;112.13;36.45;;;1.90;99.90;;;;;;5050925;28;20021;-65
2021/11/06 04:32:57;;;;;;;98.90;33.88;;;1.80;99.90;;;;;;5050237;28;20037;-65
2021/11/06 04:35:24;;;;;;;97.40;33.90;;;1.80;99.90;;;;;;5050810;28;20029;-65
2021/11/06 04:37:50;;;;;;;98.38;34.33;;;1.80;99.90;;;;;;5050706;28;20348;-65
2021/11/06 04:40:15;;;;;;;88.55;31.50;;;1.70;99.90;;;;;;5050385;28;20032;-65
2021/11/06 04:42:42;;;;;;;73.63;29.83;;;1.70;99.90;;;;;;5050958;28;20381;-66
2021/11/06 04:45:09;;;;;;;79.13;30.90;;;1.60;99.90;;;;;;5050061;28;20445;-65
2021/11/06 04:47:35;;;;;;;68.03;29.42;;;1.60;99.90;;;;;;5050557;28;20394;-66
2021/11/06 04:50:02;;;;;;;75.25;28.63;;;1.50;99.90;;;;;;5053750;28;20128;-65
2021/11/06 04:52:28;;;;;;;79.88;29.42;;;1.50;99.90;;;;;;5054506;28;20532;-65
2021/11/06 04:54:53;;;;;;;83.65;30.83;;;1.40;99.90;;;;;;5053754;28;20033;-67
2021/11/06 04:57:19;;;;;;;74.82;29.63;;;1.40;99.90;;;;;;5054117;28;20036;-65
2021/11/06 04:59:45;;;;;;;78.25;29.88;;;1.40;99.90;;;;;;5054500;28;20029;-65
2021/11/06 05:02:10;;;;;;;79.63;30.83;;;1.40;99.90;;;;;;5053321;28;20029;-65
2021/11/06 05:04:37;;;;;;;77.68;29.30;;;1.40;99.90;;;;;;5054172;28;20097;-65
2021/11/06 05:07:06;;;;;;;82.25;31.25;;;1.30;99.90;;;;;;5053261;28;20466;-65
2021/11/06 05:09:32;;;;;;;101.33;35.10;;;1.30;99.90;;;;;;5054296;28;20090;-65
2021/11/06 05:11:58;;;;;;;92.65;34.17;;;1.40;99.90;;;;;;5053267;28;20025;-65
2021/11/06 05:14:24;;;;;;;100.68;34.90;;;1.40;99.90;;;;;;5054433;28;20143;-65
2021/11/06 05:16:50;;;;;;;92.03;30.52;;;1.40;99.90;;;;;;5054342;28;20462;-65
2021/11/06 05:19:16;;;;;;;101.43;34.50;;;1.40;99.90;;;;;;5053709;28;20028;-65
2021/11/06 05:21:44;;;;;;;106.75;35.72;;;1.40;99.90;;;;;;5054130;28;20025;-65
2021/11/06 05:24:10;;;;;;;108.10;33.60;;;1.40;99.90;;;;;;5052890;28;20567;-65
2021/11/06 05:26:38;;;;;;;87.13;31.20;;;1.40;99.90;;;;;;5053924;28;20056;-65
2021/11/06 05:29:06;;;;;;;92.03;31.63;;;1.40;99.90;;;;;;5053126;28;20021;-65
2021/11/06 05:31:33;;;;;;;75.72;29.48;;;1.50;99.90;;;;;;5054076;28;20109;-65
2021/11/06 05:34:00;;;;;;;81.35;30.00;;;1.50;99.90;;;;;;5052985;28;20037;-65
2021/11/06 05:36:27;;;;;;;89.53;31.98;;;1.50;99.90;;;;;;5054230;28;20104;-65
2021/11/06 05:38:53;;;;;;;135.30;35.30;;;1.50;99.90;;;;;;5052233;28;20417;-65
2021/11/06 05:41:19;;;;;;;83.22;33.67;;;1.50;99.90;;;;;;5053307;28;20029;-65
2021/11/06 05:43:45;;;;;;;84.63;30.60;;;1.60;99.90;;;;;;5053491;28;20062;-65
2021/11/06 05:46:11;;;;;;;74.95;31.98;;;1.60;99.90;;;;;;5052751;28;20327;-65
2021/11/06 05:48:38;;;;;;;93.68;33.63;;;1.60;99.90;;;;;;5053622;28;20033;-65
2021/11/06 05:51:04;;;;;;;86.55;31.40;;;1.70;99.90;;;;;;5052648;28;20078;-65
2021/11/06 05:53:29;;;;;;;90.35;33.60;;;1.70;99.90;;;;;;5053432;28;20032;-65
2021/11/06 05:55:55;;;;;;;78.43;31.40;;;1.70;99.90;;;;;;5052883;28;20091;-65
2021/11/06 05:58:21;;;;;;;74.90;31.15;;;1.70;99.90;;;;;;5053105;28;20032;-64
2021/11/06 06:00:46;;;;;;;86.80;32.20;;;1.70;99.90;;;;;;5052364;28;20503;-64
2021/11/06 06:03:12;;;;;;;70.35;29.90;;;1.70;99.90;;;;;;5052548;28;20036;-65
2021/11/06 06:05:38;;;;;;;80.78;31.85;;;1.80;99.90;;;;;;5053293;28;20103;-65
2021/11/06 06:08:04;;;;;;;79.75;31.58;;;1.70;99.90;;;;;;5051392;28;20033;-65
2021/11/06 06:10:29;;;;;;;91.93;32.83;;;1.70;99.90;;;;;;5053098;28;20028;-65
2021/11/06 06:12:55;;;;;;;81.13;31.20;;;1.80;99.90;;;;;;5052257;28;20482;-65
2021/11/06 06:15:21;;;;;;;78.28;29.65;;;1.80;99.90;;;;;;5053120;28;20044;-65
2021/11/06 06:17:48;;;;;;;86.35;32.15;;;1.80;99.90;;;;;;5052883;28;20385;-65
2021/11/06 06:20:15;;;;;;;109.47;35.47;;;1.80;99.90;;;;;;5051728;28;20708;-65
2021/11/06 06:22:42;;;;;;;98.97;34.25;;;1.80;99.90;;;;;;5053029;28;20592;-65
2021/11/06 06:25:09;;;;;;;85.75;30.08;;;1.80;99.90;;;;;;5050673;28;20060;-65
2021/11/06 06:27:36;;;;;;;83.55;29.60;;;1.80;99.90;;;;;;5052408;28;20481;-65
2021/11/06 06:30:05;;;;;;;87.35;32.22;;;1.90;99.90;;;;;;5051937;28;20021;-65
2021/11/06 06:32:31;;;;;;;90.53;31.83;;;1.90;99.90;;;;;;5052812;28;20031;-65
2021/11/06 06:34:57;;;;;;;99.00;33.17;;;1.80;99.90;;;;;;5051398;28;20029;-65
2021/11/06 06:37:24;;;;;;;89.85;32.58;;;1.90;99.90;;;;;;5051841;28;20048;-65
2021/11/06 06:39:50;;;;;;;81.57;31.40;;;1.90;99.90;;;;;;5051880;28;20407;-65
2021/11/06 06:42:16;;;;;;;87.85;32.45;;;1.90;99.90;;;;;;5050986;28;20393;-65
2021/11/06 06:44:42;;;;;;;79.30;31.08;;;1.90;99.90;;;;;;5051652;28;20062;-66
2021/11/06 06:47:07;;;;;;;89.28;31.92;;;1.90;99.90;;;;;;5051360;28;20405;-66
2021/11/06 06:49:33;;;;;;;102.55;32.33;;;1.90;99.90;;;;;;5051762;28;20094;-73
2021/11/06 06:51:59;;;;;;;82.97;29.58;;;1.90;99.90;;;;;;5051086;28;20059;-67
2021/11/06 06:54:25;;;;;;;72.65;26.15;;;1.90;99.90;;;;;;5043514;28;20402;-67
2021/11/06 06:56:51;;;;;;;78.72;27.92;;;1.90;99.90;;;;;;5052523;28;20035;-67
2021/11/06 06:59:17;;;;;;;84.38;28.95;;;1.90;99.90;;;;;;5050481;28;20504;-66
2021/11/06 07:01:44;;;;;;;82.75;27.95;;;1.90;99.90;;;;;;5051876;28;20025;-67
2021/11/06 07:04:09;;;;;;;70.97;25.63;;;1.90;99.90;;;;;;5049783;28;20450;-66
2021/11/06 07:06:35;;;;;;;71.25;24.23;;;1.90;99.90;;;;;;5050799;28;20113;-66
2021/11/06 07:09:00;;;;;;;64.28;22.15;;;1.90;99.90;;;;;;5050385;28;20032;-66
2021/11/06 07:11:27;;;;;;;64.80;22.05;;;2.00;99.90;;;;;;5051024;28;20021;-67
2021/11/06 07:13:53;;;;;;;61.72;21.42;;;2.00;99.90;;;;;;5050733;28;20028;-67
2021/11/06 07:16:19;;;;;;;74.97;23.02;;;2.10;99.90;;;;;;5050961;28;20025;-66
2021/11/06 07:18:44;;;;;;;62.35;22.45;;;2.10;99.90;;;;;;5051153;28;20039;-66
2021/11/06 07:21:10;;;;;;;65.13;22.13;;;2.20;99.90;;;;;;5049959;28;20462;-67
2021/11/06 07:23:36;;;;;;;67.70;24.10;;;2.20;99.90;;;;;;5050729;28;20056;-66
2021/11/06 07:26:03;;;;;;;54.13;22.42;;;2.30;99.90;;;;;;5048773;28;20043;-67
2021/11/06 07:28:31;;;;;;;49.88;20.77;;;2.40;99.90;;;;;;5050154;28;20056;-66
2021/11/06 07:30:59;;;;;;;53.95;21.15;;;2.40;99.90;;;;;;5050062;28;20031;-67
2021/11/06 07:33:24;;;;;;;50.95;21.00;;;2.50;99.90;;;;;;5050368;28;20021;-67
2021/11/06 07:35:50;;;;;;;54.70;19.63;;;2.50;99.90;;;;;;5049908;28;20085;-67
2021/11/06 07:38:16;;;;;;;44.67;19.45;;;2.60;99.90;;;;;;5048360;28;20107;-67
2021/11/06 07:40:43;;;;;;;47.25;20.08;;;2.70;99.90;;;;;;5048900;28;20474;-65
2021/11/06 07:43:09;;;;;;;47.22;20.25;;;2.70;99.90;;;;;;5049149;28;20040;-69
2021/11/06 07:45:35;;;;;;;49.67;20.83;;;2.80;99.90;;;;;;5049708;28;20060;-65
2021/11/06 07:48:01;;;;;;;53.78;21.83;;;2.90;99.90;;;;;;5050149;28;20025;-65
2021/11/06 07:50:27;;;;;;;43.67;20.15;;;2.90;99.90;;;;;;5050612;28;20036;-65
2021/11/06 07:52:53;;;;;;;47.85;21.40;;;3.10;99.90;;;;;;5048847;28;20033;-65
2021/11/06 07:55:19;;;;;;;37.90;18.70;;;3.20;99.90;;;;;;5050813;28;20204;-65
2021/11/06 07:57:46;;;;;;;35.00;18.02;;;3.30;99.90;;;;;;5049918;28;20510;-65
2021/11/06 08:00:14;;;;;;;38.25;18.20;;;3.40;99.90;;;;;;5049027;28;20079;-64
2021/11/06 08:02:41;;;;;;;35.58;17.73;;;3.50;99.90;;;;;;5049320;28;20404;-64
2021/11/06 08:05:09;;;;;;;35.97;17.67;;;3.50;99.90;;;;;;5049163;28;20043;-64
2021/11/06 08:07:36;;;;;;;28.77;16.17;;;3.50;99.90;;;;;;5050121;28;20025;-65
2021/11/06 08:10:03;;;;;;;36.58;17.05;;;3.60;99.90;;;;;;5049185;28;20028;-65
2021/11/06 08:12:30;;;;;;;30.60;16.15;;;3.60;99.90;;;;;;5049741;28;20017;-65
2021/11/06 08:14:56;;;;;;;29.05;15.45;;;3.70;99.90;;;;;;5049030;28;20090;-65
2021/11/06 08:17:22;;;;;;;29.75;14.88;;;3.80;99.90;;;;;;5049901;28;20045;-65
2021/11/06 08:19:48;;;;;;;28.00;14.30;;;3.80;99.90;;;;;;5049559;28;20130;-65
2021/11/06 08:22:13;;;;;;;28.75;14.73;;;3.90;99.90;;;;;;5048925;28;20132;-65
2021/11/06 08:24:40;;;;;;;26.38;13.73;;;4.00;99.90;;;;;;5051330;28;20159;-64
2021/11/06 08:27:06;;;;;;;25.92;13.90;;;4.10;99.90;;;;;;5053276;28;20033;-65
2021/11/06 08:29:32;;;;;;;26.45;13.70;;;4.20;99.90;;;;;;5055785;28;20090;-64
2021/11/06 08:31:58;;;;;;;28.05;14.55;;;4.30;99.90;;;;;;5053201;28;20343;-64
2021/11/06 08:34:25;;;;;;;23.58;12.95;;;4.30;99.90;;;;;;5053537;28;20082;-65
2021/11/06 08:36:52;;;;;;;25.48;13.45;;;4.30;99.90;;;;;;5051366;28;20027;-65
2021/11/06 08:39:19;;;;;;;22.20;13.10;;;4.40;99.90;;;;;;5053037;28;20045;-65
2021/11/06 08:41:47;;;;;;;19.80;12.10;;;4.60;99.90;;;;;;5053325;28;20541;-64
2021/11/06 08:44:18;;;;;;;22.13;12.85;;;4.60;99.90;;;;;;5052977;28;20071;-65
2021/11/06 08:46:45;;;;;;;19.95;11.52;;;4.70;99.90;;;;;;5053619;28;20032;-65
2021/11/06 08:49:15;;;;;;;26.13;13.23;;;4.80;99.90;;;;;;5049933;28;20330;-63
2021/11/06 08:51:49;;;;;;;24.65;12.75;;;4.90;99.90;;;;;;5053746;28;20024;-62
2021/11/06 08:54:16;;;;;;;26.67;13.32;;;5.00;99.90;;;;;;5051058;28;20430;-63
2021/11/06 08:56:44;;;;;;;24.65;12.52;;;5.00;99.90;;;;;;5053513;28;20013;-63
2021/11/06 08:59:11;;;;;;;27.48;13.68;;;4.90;99.90;;;;;;5053106;28;20021;-63
2021/11/06 09:01:37;;;;;;;26.08;13.65;;;4.80;99.90;;;;;;5053408;28;20105;-63
2021/11/06 09:04:03;;;;;;;31.42;14.55;;;4.80;99.90;;;;;;5052720;28;20025;-64
2021/11/06 09:06:33;;;;;;;29.42;14.15;;;4.80;99.90;;;;;;5053302;28;20374;-63
2021/11/06 09:09:01;;;;;;;22.58;13.10;;;4.90;99.90;;;;;;5053051;28;20096;-63
2021/11/06 09:11:27;;;;;;;25.25;13.65;;;4.90;99.90;;;;;;5053503;28;20108;-63
2021/11/06 09:13:55;;;;;;;21.98;12.45;;;5.00;99.90;;;;;;5053774;28;20227;-63
2021/11/06 09:16:21;;;;;;;25.85;12.95;;;5.10;99.90;;;;;;5051966;28;20441;-63
2021/11/06 09:18:46;;;;;;;19.95;11.85;;;5.20;99.90;;;;;;5053331;28;20105;-63
2021/11/06 09:21:15;;;;;;;22.55;12.20;;;5.20;99.90;;;;;;5052821;28;20311;-64
2021/11/06 09:23:41;;;;;;;22.85;13.27;;;5.30;99.90;;;;;;5053000;28;20033;-64
2021/11/06 09:26:09;;;;;;;21.13;12.77;;;5.30;99.90;;;;;;5053694;28;20366;-64
2021/11/06 09:28:40;;;;;;;20.95;12.88;;;5.40;99.90;;;;;;5053260;28;20462;-64
2021/11/06 09:31:06;;;;;;;20.75;12.18;;;5.40;99.90;;;;;;5053577;28;20024;-64
2021/11/06 09:33:32;;;;;;;22.52;14.10;;;5.60;99.90;;;;;;5052959;28;20358;-64
2021/11/06 09:35:58;;;;;;;22.65;13.45;;;5.60;99.90;;;;;;5052571;28;20020;-64
2021/11/06 09:38:24;;;;;;;21.50;13.45;;;5.70;99.90;;;;;;5053530;28;20025;-64
2021/11/06 09:40:49;;;;;;;21.05;13.18;;;5.70;99.90;;;;;;5052483;28;20025;-64
2021/11/06 09:43:16;;;;;;;20.05;12.43;;;5.90;99.90;;;;;;5052969;28;20137;-66
2021/11/06 09:45:45;;;;;;;17.58;10.98;;;5.90;99.90;;;;;;5053508;28;20056;-66
2021/11/06 09:48:11;;;;;;;15.88;9.63;;;6.10;99.90;;;;;;5052314;28;20032;-66
2021/11/06 09:50:37;;;;;;;17.63;11.20;;;6.10;99.90;;;;;;5056198;28;20020;-66
2021/11/06 09:53:03;;;;;;;18.75;11.95;;;6.20;99.90;;;;;;5052858;28;20040;-66
2021/11/06 09:55:32;;;;;;;16.45;10.68;;;6.30;99.90;;;;;;5053936;28;20463;-65
2021/11/06 09:58:00;;;;;;;16.83;11.27;;;6.30;99.90;;;;;;5053202;28;20386;-66
2021/11/06 10:00:26;;;;;;;17.98;11.77;;;6.40;99.90;;;;;;5053699;28;20039;-68
2021/11/06 10:02:56;;;;;;;16.25;11.13;;;6.40;99.90;;;;;;5052925;28;20111;-70
2021/11/06 10:05:46;;;;;;;20.00;12.68;;;6.40;99.90;;;;;;5053718;28;20021;-71
2021/11/06 10:08:18;;;;;;;21.15;13.02;;;6.50;99.90;;;;;;5052733;28;20053;-73
2021/11/06 10:10:45;;;;;;;22.45;13.27;;;6.60;99.90;;;;;;5053231;28;20466;-74
2021/11/06 10:13:11;;;;;;;16.30;10.85;;;6.60;99.90;;;;;;5052693;28;20052;-70
2021/11/06 10:15:51;;;;;;;17.00;11.88;;;6.70;99.90;;;;;;5053047;28;20029;-71
2021/11/06 10:18:22;;;;;;;15.82;10.98;;;6.80;99.90;;;;;;5051861;28;20166;-71
2021/11/06 10:20:51;;;;;;;16.48;10.88;;;6.90;99.90;;;;;;5051647;28;20427;-68
2021/11/06 10:23:17;;;;;;;14.60;10.48;;;7.00;99.90;;;;;;5051675;28;20033;-67
2021/11/06 10:25:43;;;;;;;14.20;9.70;;;7.10;99.90;;;;;;5053653;28;20374;-72
2021/11/06 10:28:14;;;;;;;12.95;9.50;;;7.10;99.90;;;;;;5054204;28;20035;-65
2021/11/06 10:30:42;;;;;;;16.13;10.57;;;7.20;99.90;;;;;;5046108;28;20040;-65
2021/11/06 10:33:17;;;;;;;17.17;11.25;;;7.30;99.90;;;;;;5053871;28;20086;-66
2021/11/06 10:35:53;;;;;;;14.70;10.73;;;7.30;99.90;;;;;;5054852;28;20463;-65
2021/11/06 10:38:25;;;;;;;14.80;10.98;;;7.30;99.90;;;;;;5052242;28;20017;-65
2021/11/06 10:40:55;;;;;;;16.75;10.98;;;7.30;99.90;;;;;;5052450;28;20029;-64
2021/11/06 10:43:24;;;;;;;17.00;11.73;;;7.40;99.90;;;;;;5052008;28;20417;-65
2021/11/06 10:45:54;;;;;;;17.05;12.23;;;7.50;99.90;;;;;;5052101;28;20474;-65
2021/11/06 10:48:35;;;;;;;17.45;10.43;;;7.60;99.90;;;;;;5051942;28;20078;-65
2021/11/06 10:51:09;;;;;;;17.02;10.95;;;7.60;99.90;;;;;;5051316;28;20417;-70
2021/11/06 10:53:50;;;;;;;17.00;11.88;;;7.70;99.90;;;;;;5053052;28;20108;-67
2021/11/06 10:56:21;;;;;;;21.60;12.77;;;7.90;99.90;;;;;;5052609;28;20912;-66
2021/11/06 10:58:49;;;;;;;18.33;12.90;;;8.00;99.90;;;;;;5052722;28;20124;-66
2021/11/06 11:01:20;;;;;;;18.30;12.55;;;8.00;99.90;;;;;;5052134;28;20025;-65
2021/11/06 11:03:48;;;;;;;16.95;12.38;;;8.00;99.90;;;;;;5052619;28;20519;-65
2021/11/06 11:06:33;;;;;;;16.73;11.60;;;8.00;99.90;;;;;;5052515;28;20053;-64
2021/11/06 11:08:59;;;;;;;18.35;12.38;;;7.90;99.90;;;;;;5052173;28;20075;-65
2021/11/06 11:11:30;;;;;;;18.70;12.82;;;7.90;99.90;;;;;;5052817;28;20029;-64
2021/11/06 11:14:00;;;;;;;19.50;13.63;;;8.10;99.90;;;;;;5052804;28;20048;-68
2021/11/06 11:16:26;;;;;;;20.17;13.63;;;8.20;99.90;;;;;;5052525;28;20116;-64
2021/11/06 11:18:54;;;;;;;26.23;17.23;;;8.20;99.90;;;;;;5052467;28;20029;-65
2021/11/06 11:21:26;;;;;;;24.98;16.98;;;8.30;99.90;;;;;;5054114;28;20033;-65
2021/11/06 11:24:04;;;;;;;27.77;16.90;;;8.20;99.90;;;;;;5069223;28;20048;-65
2021/11/06 11:26:36;;;;;;;26.95;16.75;;;8.10;99.90;;;;;;5072904;28;20025;-64
2021/11/06 11:29:04;;;;;;;27.38;17.42;;;8.00;99.90;;;;;;5071824;28;20470;-66
2021/11/06 11:31:30;;;;;;;27.90;17.40;;;7.90;99.90;;;;;;5057317;28;20025;-64
2021/11/06 11:33:57;;;;;;;28.08;17.90;;;7.80;99.90;;;;;;5052218;28;20496;-64
2021/11/06 11:36:26;;;;;;;29.10;17.90;;;7.70;99.90;;;;;;5052137;28;20025;-65
2021/11/06 11:38:53;;;;;;;28.00;18.60;;;7.60;99.90;;;;;;5052442;28;20066;-65
2021/11/06 11:41:46;;;;;;;32.10;19.85;;;7.60;99.90;;;;;;5053417;28;20029;-64
2021/11/06 11:44:12;;;;;;;31.65;19.25;;;7.70;99.90;;;;;;5071185;28;20092;-64
2021/11/06 11:46:51;;;;;;;27.52;18.10;;;7.70;99.90;;;;;;5072338;28;20130;-65
2021/11/06 11:49:19;;;;;;;29.13;18.77;;;7.80;99.90;;;;;;5059656;28;20082;-65
2021/11/06 11:51:45;;;;;;;37.78;20.75;;;8.00;99.90;;;;;;5052184;28;20112;-64
2021/11/06 11:54:12;;;;;;;32.75;20.25;;;8.00;99.90;;;;;;5061163;28;20166;-64
2021/11/06 11:56:39;;;;;;;33.25;20.55;;;7.80;99.90;;;;;;5072187;28;20071;-65
2021/11/06 11:59:06;;;;;;;35.53;20.95;;;7.70;99.90;;;;;;5070477;28;20025;-66
2021/11/06 12:01:32;;;;;;;33.65;20.52;;;7.60;99.90;;;;;;5066156;28;20514;-64
2021/11/06 12:04:17;;;;;;;32.15;19.83;;;7.40;99.90;;;;;;5071544;28;20025;-67
2021/11/06 12:06:44;;;;;;;37.70;22.30;;;7.30;99.90;;;;;;5072176;28;20036;-66
2021/11/06 12:09:16;;;;;;;43.33;24.27;;;7.20;99.90;;;;;;5071672;28;20066;-64
2021/11/06 12:11:44;;;;;;;39.47;24.10;;;7.20;99.90;;;;;;5072045;28;20444;-66
2021/11/06 12:14:21;;;;;;;36.45;23.13;;;7.20;99.90;;;;;;5071567;28;20363;-64
2021/11/06 12:16:55;;;;;;;40.63;24.73;;;7.20;99.90;;;;;;5072028;28;20025;-64
2021/11/06 12:19:38;;;;;;;40.60;24.25;;;7.20;99.90;;;;;;5058738;28;20104;-64
2021/11/06 12:22:08;;;;;;;42.47;25.35;;;7.30;99.90;;;;;;5058606;28;20024;-65
2021/11/06 12:24:34;;;;;;;40.72;24.52;;;7.30;99.90;;;;;;5071505;28;20039;-64
2021/11/06 12:27:03;;;;;;;41.08;24.65;;;7.30;99.90;;;;;;5071267;28;20040;-64
2021/11/06 12:29:35;;;;;;;37.63;23.97;;;7.30;99.90;;;;;;5071827;28;20024;-63
2021/11/06 12:32:10;;;;;;;45.63;26.88;;;7.40;99.90;;;;;;5054822;28;20029;-65
2021/11/06 12:34:43;;;;;;;39.88;23.75;;;7.50;99.90;;;;;;5051495;28;20186;-64